createdAt,value
2022-09-12T00:03:54.858Z,92.90
2022-09-12T00:06:32.793Z,93.00
2022-09-12T00:09:05.303Z,92.90
2022-09-12T00:11:32.695Z,92.80
2022-09-12T00:14:02.094Z,92.70
2022-09-12T00:16:38.303Z,92.70
2022-09-12T00:19:07.182Z,92.70
2022-09-12T00:21:37.232Z,92.90
2022-09-12T00:24:05.598Z,93.00
2022-09-12T00:26:33.444Z,93.00
2022-09-12T00:29:00.887Z,93.00
2022-09-12T00:31:28.698Z,93.10
2022-09-12T00:34:02.249Z,93.20
2022-09-12T00:36:30.687Z,93.10
2022-09-12T00:38:58.828Z,93.30
2022-09-12T00:41:34.178Z,93.40
2022-09-12T00:44:21.500Z,93.40
2022-09-12T00:46:48.726Z,93.50
2022-09-12T00:49:25.063Z,93.50
2022-09-12T00:52:10.424Z,93.50
2022-09-12T00:54:56.162Z,93.40
2022-09-12T00:57:29.889Z,93.20
2022-09-12T01:00:14.708Z,93.10
2022-09-12T01:02:45.184Z,93.10
2022-09-12T01:05:13.975Z,92.80
2022-09-12T01:07:42.126Z,92.60
2022-09-12T01:10:11.297Z,92.50
2022-09-12T01:12:41.248Z,92.70
2022-09-12T01:15:10.662Z,93.00
2022-09-12T01:17:56.524Z,93.30
2022-09-12T01:20:30.178Z,93.40
2022-09-12T01:23:20.540Z,93.50
2022-09-12T01:26:06.783Z,93.50
2022-09-12T01:29:07.483Z,93.80
2022-09-12T01:31:52.444Z,93.90
2022-09-12T01:34:29.798Z,94.00
2022-09-12T01:37:26.666Z,93.90
2022-09-12T01:40:31.756Z,93.70
2022-09-12T01:43:21.462Z,93.40
2022-09-12T01:46:25.159Z,93.50
2022-09-12T01:49:04.493Z,93.50
2022-09-12T01:51:40.246Z,93.40
2022-09-12T01:54:19.830Z,93.40
2022-09-12T01:56:55.807Z,93.50
2022-09-12T01:59:36.580Z,93.50
2022-09-12T02:02:25.950Z,93.50
2022-09-12T02:05:27.101Z,93.50
2022-09-12T02:08:28.692Z,93.50
2022-09-12T02:11:10.325Z,93.60
2022-09-12T02:13:52.782Z,93.70
2022-09-12T02:16:31.787Z,93.80
2022-09-12T02:19:08.225Z,93.90
2022-09-12T02:21:38.920Z,94.00
2022-09-12T02:24:10.384Z,94.20
2022-09-12T02:26:55.320Z,94.30
2022-09-12T02:29:23.162Z,94.40
2022-09-12T02:32:26.758Z,94.80
2022-09-12T02:35:09.107Z,94.50
2022-09-12T02:37:54.287Z,94.30
2022-09-12T02:40:23.160Z,94.20
2022-09-12T02:42:51.401Z,94.20
2022-09-12T02:45:19.447Z,94.30
2022-09-12T02:47:57.414Z,94.30
2022-09-12T02:50:25.553Z,94.40
2022-09-12T02:52:55.864Z,94.40
2022-09-12T02:55:25.338Z,94.40
2022-09-12T02:57:53.067Z,94.40
2022-09-12T03:00:20.922Z,94.50
2022-09-12T03:02:53.960Z,94.50
2022-09-12T03:05:33.424Z,94.50
2022-09-12T03:08:38.996Z,94.50
2022-09-12T03:11:25.304Z,94.50
2022-09-12T03:16:54.206Z,94.10
2022-09-12T03:20:12.312Z,94.20
2022-09-12T03:23:02.188Z,94.30
2022-09-12T03:25:37.183Z,94.50
2022-09-12T03:28:16.194Z,94.50
2022-09-12T03:30:46.906Z,94.40
2022-09-12T03:33:17.068Z,94.40
2022-09-12T03:35:45.814Z,94.30
2022-09-12T03:38:13.790Z,94.30
2022-09-12T03:40:41.577Z,94.30
2022-09-12T03:43:10.556Z,94.30
2022-09-12T03:45:48.095Z,94.40
2022-09-12T03:48:15.393Z,94.40
2022-09-12T03:50:42.754Z,94.30
2022-09-12T03:53:12.969Z,94.20
2022-09-12T03:55:42.730Z,94.20
2022-09-12T03:58:10.092Z,94.20
2022-09-12T04:00:40.322Z,94.10
2022-09-12T04:03:07.791Z,94.00
2022-09-12T04:05:36.779Z,94.00
2022-09-12T04:08:04.313Z,94.00
2022-09-12T04:10:32.413Z,94.10
2022-09-12T04:12:59.887Z,94.20
2022-09-12T04:15:27.439Z,94.30
2022-09-12T04:17:54.870Z,94.40
2022-09-12T04:20:22.409Z,94.50
2022-09-12T04:22:49.784Z,94.50
2022-09-12T04:25:17.497Z,94.30
2022-09-12T04:27:45.498Z,94.10
2022-09-12T04:30:13.511Z,94.00
2022-09-12T04:32:41.730Z,93.90
2022-09-12T04:35:09.358Z,93.80
2022-09-12T04:37:36.698Z,93.70
2022-09-12T04:40:04.653Z,93.80
2022-09-12T04:42:32.298Z,94.00
2022-09-12T04:44:59.631Z,94.30
2022-09-12T04:47:26.978Z,94.50
2022-09-12T04:49:54.670Z,94.80
2022-09-12T04:52:22.166Z,94.90
2022-09-12T04:54:49.567Z,95.20
2022-09-12T04:57:20.234Z,94.90
2022-09-12T04:59:47.757Z,94.90
2022-09-12T05:02:15.347Z,94.90
2022-09-12T05:04:43.016Z,95.00
2022-09-12T05:09:38.444Z,94.60
2022-09-12T05:14:35.424Z,94.50
2022-09-12T05:17:06.177Z,94.60
2022-09-12T05:19:33.852Z,94.70
2022-09-12T05:22:01.404Z,94.70
2022-09-12T05:24:29.195Z,94.80
2022-09-12T05:26:57.086Z,94.90
2022-09-12T05:29:25.380Z,95.00
2022-09-12T05:31:53.059Z,95.20
2022-09-12T05:34:21.465Z,95.30
2022-09-12T05:36:49.992Z,95.40
2022-09-12T05:39:18.727Z,95.40
2022-09-12T05:41:46.127Z,95.50
2022-09-12T05:44:15.128Z,95.60
2022-09-12T05:46:51.426Z,95.60
2022-09-12T05:49:19.482Z,95.50
2022-09-12T05:51:47.022Z,95.60
2022-09-12T05:54:19.664Z,95.70
2022-09-12T05:56:48.556Z,95.70
2022-09-12T05:59:19.166Z,95.90
2022-09-12T06:01:47.312Z,96.00
2022-09-12T06:04:15.064Z,96.10
2022-09-12T06:06:47.516Z,96.00
2022-09-12T06:09:16.956Z,95.90
2022-09-12T06:11:46.355Z,95.80
2022-09-12T06:14:16.960Z,95.70
2022-09-12T06:16:44.871Z,95.60
2022-09-12T06:19:27.795Z,95.60
2022-09-12T06:21:55.513Z,95.80
2022-09-12T06:24:23.085Z,96.00
2022-09-12T06:26:52.999Z,96.00
2022-09-12T06:29:20.540Z,96.30
2022-09-12T06:31:48.000Z,96.30
2022-09-12T06:34:16.742Z,96.30
2022-09-12T06:36:47.812Z,96.50
2022-09-12T06:39:18.978Z,96.10
2022-09-12T06:41:50.055Z,95.80
2022-09-12T06:44:21.090Z,95.30
2022-09-12T06:46:49.527Z,95.00
2022-09-12T06:49:18.913Z,94.90
2022-09-12T06:51:48.591Z,94.80
2022-09-12T06:54:19.429Z,94.50
2022-09-12T06:56:49.462Z,94.60
2022-09-12T06:59:21.146Z,94.50
2022-09-12T07:01:48.710Z,94.10
2022-09-12T07:04:18.605Z,93.80
2022-09-12T07:06:55.889Z,93.20
2022-09-12T07:09:26.735Z,92.90
2022-09-12T07:12:00.239Z,92.50
2022-09-12T07:14:30.670Z,92.20
2022-09-12T07:17:02.681Z,92.10
2022-09-12T07:19:30.410Z,92.00
2022-09-12T07:22:12.665Z,91.40
2022-09-12T07:24:43.124Z,91.30
2022-09-12T07:27:25.133Z,90.90
2022-09-12T07:29:57.512Z,91.00
2022-09-12T07:32:38.718Z,90.50
2022-09-12T07:35:18.269Z,89.60
2022-09-12T07:37:48.450Z,90.00
2022-09-12T07:40:24.564Z,89.60
2022-09-12T07:43:08.261Z,88.40
2022-09-12T07:45:46.634Z,87.60
2022-09-12T07:51:14.908Z,86.30
2022-09-12T07:53:59.239Z,86.70
2022-09-12T07:56:39.183Z,86.00
2022-09-12T07:59:52.465Z,85.50
2022-09-12T08:02:53.211Z,85.40
2022-09-12T08:05:23.398Z,84.30
2022-09-12T08:07:57.676Z,83.80
2022-09-12T08:10:55.793Z,82.20
2022-09-12T08:14:23.070Z,79.90
2022-09-12T08:17:05.493Z,77.40
2022-09-12T08:20:03.767Z,77.70
2022-09-12T08:22:46.261Z,76.30
2022-09-12T08:25:19.609Z,74.20
2022-09-12T08:28:58.985Z,74.70
2022-09-12T08:31:48.936Z,71.90
2022-09-12T08:34:29.134Z,70.30
2022-09-12T08:37:14.357Z,70.70
2022-09-12T08:39:48.036Z,69.60
2022-09-12T08:43:07.723Z,66.90
2022-09-12T08:50:49.978Z,65.60
2022-09-12T08:53:44.827Z,64.00
2022-09-12T09:01:36.135Z,64.40
2022-09-12T09:04:30.991Z,62.40
2022-09-12T09:07:54.010Z,61.30
2022-09-12T09:10:47.668Z,60.00
2022-09-12T09:13:51.893Z,58.80
2022-09-12T09:16:45.505Z,58.70
2022-09-12T09:19:50.123Z,55.40
2022-09-12T09:23:09.629Z,54.70
2022-09-12T09:26:38.312Z,52.20
2022-09-12T09:39:08.651Z,48.30
2022-09-12T09:43:19.721Z,48.20
2022-09-12T09:46:07.122Z,48.80
2022-09-12T09:48:56.810Z,46.80
2022-09-12T09:51:49.203Z,50.10
2022-09-12T09:55:01.161Z,46.20
2022-09-12T10:01:28.005Z,42.10
2022-09-12T10:04:51.832Z,41.60
2022-09-12T10:07:34.818Z,40.90
2022-09-12T10:10:50.690Z,41.60
2022-09-12T10:14:04.696Z,42.20
2022-09-12T10:17:03.723Z,41.20
2022-09-12T10:19:59.872Z,41.60
2022-09-12T10:22:54.644Z,42.40
2022-09-12T15:31:03.633Z,33.90
2022-09-12T15:33:30.993Z,34.90
2022-09-12T15:35:58.526Z,36.40
2022-09-12T15:38:26.838Z,36.10
2022-09-12T15:40:54.993Z,37.50
2022-09-12T15:43:23.693Z,37.50
2022-09-12T15:45:52.524Z,38.40
2022-09-12T15:48:21.289Z,39.10
2022-09-12T15:50:49.276Z,39.80
2022-09-12T15:53:17.813Z,40.70
2022-09-12T15:55:45.839Z,40.50
2022-09-12T15:58:13.398Z,40.30
2022-09-12T16:00:41.618Z,40.90
2022-09-12T16:03:24.864Z,40.30
2022-09-12T16:06:03.675Z,41.70
2022-09-12T16:08:32.320Z,41.80
2022-09-12T16:11:16.558Z,41.60
2022-09-12T16:13:45.044Z,41.00
2022-09-12T16:16:12.363Z,41.50
2022-09-12T16:18:43.169Z,42.50
2022-09-12T16:21:14.875Z,42.10
2022-09-12T16:23:44.922Z,42.40
2022-09-12T16:26:12.530Z,42.60
2022-09-12T16:28:40.503Z,43.00
2022-09-12T16:31:10.516Z,42.80
2022-09-12T16:33:39.585Z,43.00
2022-09-12T16:36:14.071Z,43.80
2022-09-12T16:38:48.939Z,44.00
2022-09-12T16:41:19.027Z,44.70
2022-09-12T16:43:47.024Z,44.70
2022-09-12T16:46:23.404Z,45.20
2022-09-12T16:48:54.255Z,46.20
2022-09-12T16:51:24.243Z,46.90
2022-09-12T16:53:52.254Z,48.70
2022-09-12T16:56:20.100Z,49.10
2022-09-12T16:58:48.998Z,50.00
2022-09-12T17:01:21.940Z,50.40
2022-09-12T17:03:56.707Z,51.20
2022-09-12T17:06:25.934Z,50.90
2022-09-12T17:08:55.816Z,51.50
2022-09-12T17:11:31.269Z,52.10
2022-09-12T17:14:06.233Z,52.80
2022-09-12T17:16:38.344Z,52.60
2022-09-12T17:19:07.146Z,53.20
2022-09-12T17:21:35.627Z,54.00
2022-09-12T17:24:03.766Z,54.70
2022-09-12T17:26:31.155Z,56.10
2022-09-12T17:28:58.547Z,56.20
2022-09-12T17:31:26.826Z,55.80
2022-09-12T17:33:59.662Z,55.90
2022-09-12T17:36:28.888Z,56.30
2022-09-12T17:38:56.298Z,56.60
2022-09-12T17:41:27.739Z,57.10
2022-09-12T17:43:57.456Z,57.00
2022-09-12T17:46:32.017Z,57.50
2022-09-12T17:49:01.083Z,58.30
2022-09-12T17:51:31.337Z,58.60
2022-09-12T17:54:10.546Z,58.70
2022-09-12T17:56:39.217Z,59.30
2022-09-12T17:59:08.930Z,60.00
2022-09-12T18:01:55.206Z,60.70
2022-09-12T18:04:22.761Z,60.80
2022-09-12T18:06:50.454Z,61.30
2022-09-12T18:09:21.752Z,61.40
2022-09-12T18:11:49.597Z,61.40
2022-09-12T18:14:18.054Z,62.30
2022-09-12T18:16:46.724Z,62.90
2022-09-12T18:19:14.951Z,63.50
2022-09-12T18:21:42.489Z,63.70
2022-09-12T18:24:11.448Z,64.00
2022-09-12T18:26:39.118Z,64.90
2022-09-12T18:29:06.977Z,65.50
2022-09-12T18:31:34.677Z,66.50
2022-09-12T18:34:06.415Z,67.70
2022-09-12T18:36:33.942Z,68.80
2022-09-12T18:39:01.565Z,69.20
2022-09-12T18:41:29.230Z,69.90
2022-09-12T18:44:01.442Z,70.10
2022-09-12T18:46:31.249Z,70.60
2022-09-12T18:49:00.143Z,70.30
2022-09-12T18:51:31.824Z,70.40
2022-09-12T18:54:03.209Z,70.70
2022-09-12T18:56:33.123Z,70.90
2022-09-12T18:59:02.554Z,71.20
2022-09-12T19:01:34.137Z,71.90
2022-09-12T19:04:04.901Z,72.50
2022-09-12T19:06:39.840Z,73.00
2022-09-12T19:09:09.670Z,73.80
2022-09-12T19:11:50.135Z,73.70
2022-09-12T19:14:24.915Z,73.50
2022-09-12T19:16:53.680Z,73.50
2022-09-12T19:19:21.719Z,74.10
2022-09-12T19:21:49.205Z,74.40
2022-09-12T19:24:21.946Z,74.90
2022-09-12T19:26:50.895Z,74.90
2022-09-12T19:29:19.193Z,74.70
2022-09-12T19:31:47.205Z,74.60
2022-09-12T19:34:15.186Z,74.60
2022-09-12T19:36:46.927Z,74.80
2022-09-12T19:39:17.012Z,75.50
2022-09-12T19:41:45.141Z,75.30
2022-09-12T19:44:12.870Z,75.40
2022-09-12T19:46:40.623Z,75.60
2022-09-12T19:49:09.688Z,75.80
2022-09-12T19:51:37.280Z,76.20
2022-09-12T19:54:04.826Z,76.60
2022-09-12T19:56:32.321Z,77.00
2022-09-12T19:58:59.922Z,77.50
2022-09-12T20:01:28.895Z,78.20
2022-09-12T20:04:00.146Z,78.40
2022-09-12T20:06:30.782Z,79.10
2022-09-12T20:08:58.907Z,78.50
2022-09-12T20:11:26.438Z,78.80
2022-09-12T20:13:54.185Z,78.90
2022-09-12T20:16:25.725Z,79.70
2022-09-12T20:18:56.865Z,78.90
2022-09-12T20:21:32.109Z,78.50
2022-09-12T20:24:06.864Z,78.70
2022-09-12T20:26:35.262Z,78.50
2022-09-12T20:29:05.093Z,78.90
2022-09-12T20:31:33.881Z,79.30
2022-09-12T20:34:01.463Z,80.00
2022-09-12T20:36:29.532Z,80.30
2022-09-12T20:39:01.509Z,80.70
2022-09-12T20:41:36.212Z,81.00
2022-09-12T20:44:04.092Z,81.20
2022-09-12T20:46:34.590Z,81.40
2022-09-12T20:49:02.470Z,81.90
2022-09-12T20:51:30.665Z,81.80
